createdAt,value
2022-08-27T00:00:33.266Z,16.98
2022-08-27T00:02:55.015Z,16.38
2022-08-27T00:05:18.662Z,16.88
2022-08-27T00:07:41.394Z,16.80
2022-08-27T00:10:03.859Z,16.98
2022-08-27T00:12:25.311Z,16.58
2022-08-27T00:14:46.874Z,17.25
2022-08-27T00:17:08.775Z,17.98
2022-08-27T00:19:30.225Z,18.10
2022-08-27T00:21:51.646Z,18.98
2022-08-27T00:24:13.206Z,17.73
2022-08-27T00:26:36.682Z,18.90
2022-08-27T00:28:59.602Z,18.20
2022-08-27T00:31:23.703Z,18.08
2022-08-27T00:33:49.015Z,17.40
2022-08-27T00:36:12.095Z,17.75
2022-08-27T00:38:34.465Z,17.77
2022-08-27T00:40:56.146Z,17.50
2022-08-27T00:43:26.847Z,17.85
2022-08-27T00:45:48.762Z,17.98
2022-08-27T00:48:15.105Z,18.50
2022-08-27T00:50:48.044Z,17.83
2022-08-27T00:53:14.559Z,20.48
2022-08-27T00:56:02.574Z,21.60
2022-08-27T00:58:34.034Z,20.98
2022-08-27T01:00:56.599Z,22.15
2022-08-27T01:03:18.182Z,23.13
2022-08-27T01:05:41.267Z,21.08
2022-08-27T01:08:11.799Z,21.55
2022-08-27T01:10:33.992Z,21.23
2022-08-27T01:12:56.551Z,21.25
2022-08-27T01:15:20.266Z,21.92
2022-08-27T01:17:44.221Z,21.98
2022-08-27T01:20:09.813Z,21.20
2022-08-27T01:22:46.795Z,21.13
2022-08-27T01:25:10.846Z,20.00
2022-08-27T01:27:32.284Z,21.42
2022-08-27T01:29:54.796Z,20.83
2022-08-27T01:32:20.815Z,22.63
2022-08-27T01:34:42.936Z,20.95
2022-08-27T01:37:06.625Z,21.10
2022-08-27T01:39:28.128Z,20.65
2022-08-27T01:41:49.760Z,18.60
2022-08-27T01:44:13.981Z,19.55
2022-08-27T01:46:36.449Z,18.52
2022-08-27T01:48:58.047Z,19.08
2022-08-27T01:51:19.875Z,18.38
2022-08-27T01:53:41.377Z,16.17
2022-08-27T01:56:03.263Z,17.02
2022-08-27T01:58:28.423Z,17.70
2022-08-27T02:00:56.603Z,38.75
2022-08-27T02:03:19.134Z,13.57
2022-08-27T02:05:45.007Z,73.70
2022-08-27T02:08:07.476Z,15.02
2022-08-27T02:10:33.823Z,15.52
2022-08-27T02:12:55.355Z,15.15
2022-08-27T02:15:17.522Z,15.50
2022-08-27T02:17:39.272Z,15.63
2022-08-27T02:20:00.905Z,14.60
2022-08-27T02:22:22.558Z,14.70
2022-08-27T02:24:44.025Z,13.00
2022-08-27T02:27:05.585Z,14.35
2022-08-27T02:29:27.068Z,14.43
2022-08-27T02:31:48.555Z,15.32
2022-08-27T02:34:10.739Z,15.05
2022-08-27T02:36:32.243Z,15.98
2022-08-27T02:38:54.514Z,15.38
2022-08-27T02:41:16.710Z,15.60
2022-08-27T02:43:38.554Z,13.88
2022-08-27T02:46:01.533Z,15.65
2022-08-27T02:48:24.649Z,15.07
2022-08-27T02:50:46.767Z,15.90
2022-08-27T02:53:08.279Z,15.50
2022-08-27T02:55:30.363Z,15.27
2022-08-27T02:57:52.101Z,15.50
2022-08-27T03:00:16.086Z,15.43
2022-08-27T03:02:37.647Z,16.00
2022-08-27T03:04:59.133Z,14.98
2022-08-27T03:07:23.484Z,15.50
2022-08-27T03:09:44.932Z,14.88
2022-08-27T03:12:06.384Z,14.45
2022-08-27T03:14:28.569Z,14.50
2022-08-27T03:16:50.295Z,13.70
2022-08-27T03:19:11.734Z,14.43
2022-08-27T03:21:34.625Z,14.10
2022-08-27T03:23:56.113Z,14.10
2022-08-27T03:26:19.878Z,14.15
2022-08-27T03:28:41.488Z,14.70
2022-08-27T03:31:06.672Z,14.00
2022-08-27T03:33:34.328Z,13.52
2022-08-27T03:35:55.810Z,13.30
2022-08-27T03:38:17.283Z,13.88
2022-08-27T03:40:38.752Z,14.23
2022-08-27T03:43:00.265Z,14.43
2022-08-27T03:45:21.688Z,14.52
2022-08-27T03:47:43.186Z,14.20
2022-08-27T03:50:06.270Z,13.45
2022-08-27T03:52:28.833Z,13.77
2022-08-27T03:54:50.300Z,13.77
2022-08-27T03:57:12.130Z,12.57
2022-08-27T03:59:33.681Z,11.98
2022-08-27T04:01:55.196Z,12.88
2022-08-27T04:04:16.851Z,11.43
2022-08-27T04:06:38.938Z,12.88
2022-08-27T04:09:00.742Z,12.65
2022-08-27T04:11:22.201Z,12.43
2022-08-27T04:13:44.417Z,11.77
2022-08-27T04:16:06.447Z,10.32
2022-08-27T04:18:27.971Z,10.32
2022-08-27T04:20:52.543Z,10.38
2022-08-27T04:23:14.308Z,10.07
2022-08-27T04:25:39.940Z,11.15
2022-08-27T04:28:01.436Z,10.30
2022-08-27T04:30:23.010Z,10.00
2022-08-27T04:32:44.687Z,9.27
2022-08-27T04:35:06.329Z,10.07
2022-08-27T04:37:31.927Z,8.90
2022-08-27T04:39:53.420Z,7.10
2022-08-27T04:42:18.198Z,9.85
2022-08-27T04:44:39.668Z,9.38
2022-08-27T04:47:03.628Z,8.13
2022-08-27T04:49:26.906Z,9.13
2022-08-27T04:51:48.396Z,9.40
2022-08-27T04:54:10.446Z,9.88
2022-08-27T04:56:33.460Z,9.25
2022-08-27T04:58:55.052Z,9.43
2022-08-27T05:01:19.550Z,8.75
2022-08-27T05:03:41.081Z,5.35
2022-08-27T05:06:05.808Z,4.65
2022-08-27T05:08:27.358Z,4.93
2022-08-27T05:10:50.675Z,5.72
2022-08-27T05:13:12.659Z,5.72
2022-08-27T05:15:35.594Z,5.38
2022-08-27T05:18:00.620Z,6.22
2022-08-27T05:20:24.146Z,3.70
2022-08-27T05:22:46.672Z,3.95
2022-08-27T05:25:08.811Z,4.45
2022-08-27T05:27:30.267Z,4.05
2022-08-27T05:29:51.706Z,4.47
2022-08-27T05:32:13.490Z,5.25
2022-08-27T05:34:35.572Z,3.45
2022-08-27T05:36:57.065Z,2.70
2022-08-27T05:39:18.598Z,3.10
2022-08-27T05:41:40.110Z,3.35
2022-08-27T05:44:24.133Z,2.83
2022-08-27T05:46:47.492Z,3.80
2022-08-27T05:49:10.142Z,3.33
2022-08-27T05:51:35.074Z,3.15
2022-08-27T05:53:59.103Z,3.50
2022-08-27T05:56:22.981Z,2.60
2022-08-27T05:59:04.190Z,3.17
2022-08-27T06:01:26.392Z,3.47
2022-08-27T06:03:47.826Z,3.15
2022-08-27T06:06:11.139Z,3.40
2022-08-27T06:08:33.132Z,3.20
2022-08-27T06:10:56.311Z,4.75
2022-08-27T06:13:17.779Z,3.90
2022-08-27T06:15:39.693Z,3.92
2022-08-27T06:18:01.584Z,3.88
2022-08-27T06:20:23.790Z,3.45
2022-08-27T06:22:45.515Z,3.65
2022-08-27T06:25:07.398Z,4.10
2022-08-27T06:27:28.845Z,3.95
2022-08-27T06:29:50.315Z,4.53
2022-08-27T06:32:13.183Z,3.85
2022-08-27T06:34:34.827Z,3.10
2022-08-27T06:36:56.406Z,4.32
2022-08-27T06:39:17.857Z,5.40
2022-08-27T06:41:41.007Z,6.30
2022-08-27T06:44:02.780Z,5.78
2022-08-27T06:46:27.220Z,5.68
2022-08-27T06:48:52.416Z,6.43
2022-08-27T06:51:21.102Z,4.10
2022-08-27T06:53:43.983Z,3.67
2022-08-27T06:56:05.972Z,2.95
2022-08-27T06:58:27.454Z,2.33
2022-08-27T07:00:49.179Z,2.50
2022-08-27T07:03:11.612Z,2.50
2022-08-27T07:05:34.596Z,3.10
2022-08-27T07:07:56.299Z,3.60
2022-08-27T07:10:17.857Z,3.22
2022-08-27T07:12:39.296Z,3.42
2022-08-27T07:15:00.742Z,4.03
2022-08-27T07:17:22.174Z,4.80
2022-08-27T07:19:44.392Z,4.43
2022-08-27T07:22:05.950Z,4.70
2022-08-27T07:24:27.723Z,4.95
2022-08-27T07:26:49.147Z,4.18
2022-08-27T07:29:13.355Z,4.78
2022-08-27T07:31:38.824Z,4.13
2022-08-27T07:34:00.284Z,4.35
2022-08-27T07:36:23.385Z,2.90
2022-08-27T07:38:44.860Z,2.92
2022-08-27T07:41:14.812Z,5.30
2022-08-27T07:43:56.146Z,5.82
2022-08-27T07:46:17.918Z,4.85
2022-08-27T07:48:39.389Z,4.88
2022-08-27T07:51:05.171Z,5.53
2022-08-27T07:53:26.606Z,5.13
2022-08-27T07:55:48.143Z,5.57
2022-08-27T07:58:11.587Z,5.72
2022-08-27T08:00:34.692Z,5.80
2022-08-27T08:02:56.517Z,5.85
2022-08-27T08:05:19.381Z,5.97
2022-08-27T08:07:41.305Z,5.65
2022-08-27T08:10:02.892Z,5.45
2022-08-27T08:12:26.493Z,5.18
2022-08-27T08:14:49.163Z,4.95
2022-08-27T08:17:10.841Z,4.75
2022-08-27T08:19:33.747Z,5.20
2022-08-27T08:22:00.438Z,4.90
2022-08-27T08:24:24.048Z,4.03
2022-08-27T08:26:45.688Z,4.00
2022-08-27T08:29:07.218Z,3.85
2022-08-27T08:31:28.683Z,4.00
2022-08-27T08:33:50.322Z,4.32
2022-08-27T08:36:14.896Z,4.18
2022-08-27T08:38:37.608Z,3.35
2022-08-27T08:40:59.231Z,3.75
2022-08-27T08:43:26.900Z,3.72
2022-08-27T08:45:50.086Z,4.38
2022-08-27T08:48:23.927Z,4.18
2022-08-27T08:50:55.082Z,4.47
2022-08-27T08:53:33.282Z,3.63
2022-08-27T08:55:58.627Z,3.30
2022-08-27T08:58:51.605Z,2.85
2022-08-27T09:01:17.084Z,2.35
2022-08-27T09:03:42.098Z,2.90
2022-08-27T09:06:07.346Z,3.78
2022-08-27T09:08:41.701Z,3.70
2022-08-27T09:11:35.922Z,3.30
2022-08-27T09:14:07.527Z,4.65
2022-08-27T09:16:32.657Z,3.45
2022-08-27T09:18:54.875Z,3.83
2022-08-27T09:21:48.658Z,6.57
2022-08-27T09:24:34.893Z,3.08
2022-08-27T09:26:56.677Z,45.97
2022-08-27T09:29:20.220Z,2.42
2022-08-27T09:32:04.168Z,2.97
2022-08-27T09:34:34.416Z,6.88
2022-08-27T09:37:33.908Z,5.72
2022-08-27T09:40:13.810Z,5.40
2022-08-27T09:42:53.111Z,5.82
2022-08-27T09:45:19.377Z,5.03
2022-08-27T09:47:48.544Z,5.32
2022-08-27T09:50:10.620Z,6.15
2022-08-27T09:52:37.841Z,5.72
2022-08-27T09:55:00.098Z,5.60
2022-08-27T09:57:34.496Z,6.07
2022-08-27T09:59:56.264Z,5.90
2022-08-27T10:02:23.660Z,5.88
2022-08-27T10:04:50.475Z,5.18
2022-08-27T10:07:31.464Z,5.18
2022-08-27T10:10:05.195Z,4.65
2022-08-27T10:12:40.546Z,5.07
2022-08-27T10:15:05.401Z,5.28
2022-08-27T10:17:51.437Z,5.40
2022-08-27T10:20:30.296Z,5.15
2022-08-27T10:23:10.214Z,4.70
2022-08-27T10:25:47.077Z,5.82
2022-08-27T10:28:36.720Z,5.40
2022-08-27T10:31:18.163Z,5.47
2022-08-27T10:34:01.447Z,5.78
2022-08-27T10:36:52.309Z,5.85
2022-08-27T10:39:23.651Z,5.53
2022-08-27T10:42:03.809Z,5.68
2022-08-27T10:44:46.155Z,5.63
2022-08-27T10:47:46.469Z,6.50
2022-08-27T10:50:24.879Z,4.20
2022-08-27T10:52:55.679Z,4.45
2022-08-27T10:55:23.920Z,4.60
2022-08-27T10:58:25.385Z,4.93
2022-08-27T11:01:11.093Z,5.63
2022-08-27T11:04:06.573Z,5.43
2022-08-27T11:06:33.695Z,5.05
2022-08-27T11:09:01.032Z,5.80
2022-08-27T11:14:42.966Z,5.68
2022-08-27T11:17:12.108Z,5.65
2022-08-27T11:19:57.143Z,4.75
2022-08-27T11:22:37.149Z,6.38
2022-08-27T11:25:10.770Z,5.82
2022-08-27T11:27:34.400Z,6.20
2022-08-27T11:30:17.999Z,6.53
2022-08-27T11:32:58.400Z,6.30
2022-08-27T11:35:35.427Z,5.72
2022-08-27T11:38:34.455Z,6.28
2022-08-27T11:40:58.608Z,6.10
2022-08-27T11:43:23.758Z,6.47
2022-08-27T11:45:58.415Z,6.40
2022-08-27T11:48:26.427Z,6.10
2022-08-27T11:51:01.013Z,6.13
2022-08-27T11:53:29.009Z,6.53
2022-08-27T11:55:50.456Z,6.40
2022-08-27T11:58:17.999Z,6.78
2022-08-27T12:00:42.066Z,7.40
2022-08-27T12:03:24.985Z,8.55
2022-08-27T12:06:10.470Z,8.88
2022-08-27T12:08:37.601Z,9.00
2022-08-27T12:11:02.015Z,8.50
2022-08-27T12:13:36.052Z,8.57
2022-08-27T12:16:12.639Z,8.55
2022-08-27T12:18:56.009Z,8.52
2022-08-27T12:21:42.738Z,9.23
2022-08-27T12:24:26.034Z,9.38
2022-08-27T12:26:59.847Z,9.90
2022-08-27T12:29:31.127Z,8.80
2022-08-27T12:32:03.268Z,8.88
2022-08-27T12:34:26.375Z,8.90
2022-08-27T12:36:49.579Z,8.98
2022-08-27T12:39:18.073Z,9.68
2022-08-27T12:41:46.135Z,9.52
2022-08-27T12:44:10.577Z,9.93
2022-08-27T12:46:33.523Z,9.93
2022-08-27T12:48:58.032Z,9.88
2022-08-27T12:51:36.226Z,9.30
2022-08-27T12:54:10.993Z,8.63
2022-08-27T12:56:56.248Z,9.65
2022-08-27T13:00:00.609Z,9.75
2022-08-27T13:02:54.249Z,8.60
2022-08-27T13:05:21.225Z,8.98
2022-08-27T13:07:46.277Z,8.88
2022-08-27T13:10:21.786Z,8.25
2022-08-27T13:12:44.920Z,9.20
2022-08-27T13:15:08.514Z,8.75
2022-08-27T13:17:30.313Z,8.88
2022-08-27T13:20:02.018Z,8.27
2022-08-27T13:22:29.055Z,8.77
2022-08-27T13:24:53.520Z,8.63
2022-08-27T13:27:15.305Z,8.60
2022-08-27T13:29:37.528Z,9.52
2022-08-27T13:31:59.977Z,9.50
2022-08-27T13:34:25.700Z,10.50
2022-08-27T13:37:21.084Z,10.15
2022-08-27T13:39:43.693Z,9.75
2022-08-27T13:42:08.212Z,9.70
2022-08-27T13:44:41.120Z,9.00
2022-08-27T13:47:09.239Z,9.18
2022-08-27T13:49:37.197Z,9.02
2022-08-27T13:52:27.068Z,9.90
2022-08-27T13:54:53.305Z,8.52
2022-08-27T13:57:31.310Z,8.60
2022-08-27T13:59:53.174Z,9.70
2022-08-27T14:02:24.544Z,8.60
2022-08-27T14:04:48.738Z,8.48
2022-08-27T14:07:13.964Z,8.45
2022-08-27T14:09:51.268Z,10.05
2022-08-27T14:12:32.876Z,8.95
2022-08-27T14:14:55.196Z,8.90
2022-08-27T14:17:27.834Z,9.15
2022-08-27T14:19:50.994Z,9.07
2022-08-27T14:22:12.424Z,8.98
2022-08-27T14:24:33.862Z,9.48
2022-08-27T14:27:04.628Z,9.73
2022-08-27T14:29:26.052Z,9.13
2022-08-27T14:31:47.562Z,8.52
2022-08-27T14:34:09.033Z,10.30
2022-08-27T14:36:39.168Z,8.93
2022-08-27T14:39:00.750Z,7.43
2022-08-27T14:41:24.822Z,8.60
2022-08-27T14:43:48.952Z,8.05
2022-08-27T14:46:27.269Z,8.02
2022-08-27T14:48:51.683Z,7.90
2022-08-27T14:51:18.568Z,8.70
2022-08-27T14:53:40.007Z,8.43
2022-08-27T14:56:01.819Z,8.52
2022-08-27T14:58:23.261Z,8.30
2022-08-27T15:00:44.718Z,7.95
2022-08-27T15:03:07.764Z,7.63
2022-08-27T15:05:29.315Z,7.30
2022-08-27T15:07:51.418Z,7.38
2022-08-27T15:10:13.681Z,7.15
2022-08-27T15:12:35.378Z,7.03
2022-08-27T15:14:56.845Z,7.32
2022-08-27T15:17:34.236Z,6.95
2022-08-27T15:19:56.792Z,7.85
2022-08-27T15:22:24.289Z,7.38
2022-08-27T15:24:50.737Z,7.18
2022-08-27T15:27:12.182Z,7.53
2022-08-27T15:29:33.874Z,7.35
2022-08-27T15:31:55.422Z,7.95
2022-08-27T15:34:17.432Z,7.78
2022-08-27T15:36:39.734Z,8.40
2022-08-27T15:39:01.679Z,7.85
2022-08-27T15:41:28.553Z,7.85
2022-08-27T15:43:50.679Z,7.90
2022-08-27T15:46:12.213Z,7.80
2022-08-27T15:48:33.780Z,7.68
2022-08-27T15:50:55.508Z,7.75
2022-08-27T15:53:21.594Z,7.85
2022-08-27T15:55:44.302Z,8.15
2022-08-27T15:58:06.420Z,7.35
2022-08-27T16:00:30.045Z,7.70
2022-08-27T16:02:51.715Z,7.70
2022-08-27T16:05:15.092Z,8.00
2022-08-27T16:07:36.560Z,8.02
2022-08-27T16:09:58.178Z,7.88
2022-08-27T16:12:26.785Z,7.78
2022-08-27T16:14:49.079Z,7.47
2022-08-27T16:17:10.714Z,7.75
2022-08-27T16:19:32.793Z,11.13
2022-08-27T16:21:54.347Z,13.27
2022-08-27T16:24:15.832Z,12.73
2022-08-27T16:26:37.821Z,12.30
2022-08-27T16:28:59.281Z,7.40
2022-08-27T16:31:20.798Z,7.68
2022-08-27T16:33:42.618Z,7.85
2022-08-27T16:36:05.030Z,7.13
2022-08-27T16:38:27.394Z,7.00
2022-08-27T16:40:54.166Z,6.43
2022-08-27T16:43:21.222Z,7.35
2022-08-27T16:45:42.933Z,6.97
2022-08-27T16:48:22.770Z,7.03
2022-08-27T16:50:44.216Z,7.43
2022-08-27T16:53:17.022Z,7.22
2022-08-27T16:55:39.079Z,7.57
2022-08-27T16:58:01.059Z,7.50
2022-08-27T17:00:22.532Z,7.05
2022-08-27T17:02:44.139Z,7.05
2022-08-27T17:05:24.013Z,7.30
2022-08-27T17:07:49.233Z,6.95
2022-08-27T17:10:13.273Z,7.28
2022-08-27T17:12:35.759Z,6.88
2022-08-27T17:15:00.479Z,7.22
2022-08-27T17:17:21.989Z,6.63
2022-08-27T17:19:45.371Z,6.38
2022-08-27T17:22:09.385Z,7.38
2022-08-27T17:24:31.331Z,6.68
2022-08-27T17:26:53.104Z,15.98
2022-08-27T17:29:14.563Z,12.52
2022-08-27T17:31:38.423Z,8.93
2022-08-27T17:34:00.536Z,7.20
2022-08-27T17:36:23.030Z,7.25
2022-08-27T17:38:49.835Z,7.47
2022-08-27T17:41:28.689Z,6.13
2022-08-27T17:43:57.678Z,6.30
2022-08-27T17:46:19.248Z,6.60
2022-08-27T17:48:41.394Z,5.80
2022-08-27T17:51:03.951Z,6.03
2022-08-27T17:53:25.563Z,6.10
2022-08-27T17:55:47.068Z,6.28
2022-08-27T17:58:08.589Z,5.63
2022-08-27T18:00:30.039Z,5.40
2022-08-27T18:02:52.404Z,5.32
2022-08-27T18:05:15.350Z,5.72
2022-08-27T18:07:39.999Z,6.28
2022-08-27T18:10:02.060Z,5.15
2022-08-27T18:12:25.973Z,5.72
2022-08-27T18:14:53.461Z,5.22
2022-08-27T18:17:14.917Z,5.13
2022-08-27T18:19:37.759Z,5.28
2022-08-27T18:22:00.537Z,5.22
2022-08-27T18:24:21.979Z,5.20
2022-08-27T18:26:44.778Z,6.63
2022-08-27T18:29:06.342Z,4.80
2022-08-27T18:31:31.535Z,5.28
2022-08-27T18:33:53.688Z,24.02
2022-08-27T18:36:15.351Z,5.32
2022-08-27T18:38:36.843Z,4.88
2022-08-27T18:40:58.834Z,4.43
2022-08-27T18:43:30.858Z,5.15
2022-08-27T18:45:52.405Z,5.10
2022-08-27T18:48:21.239Z,5.20
2022-08-27T18:50:46.707Z,5.00
2022-08-27T18:53:08.396Z,5.25
2022-08-27T18:55:29.838Z,5.65
2022-08-27T18:57:52.043Z,5.70
2022-08-27T19:00:15.796Z,5.00
2022-08-27T19:02:37.725Z,4.93
2022-08-27T19:04:59.655Z,5.10
2022-08-27T19:07:21.153Z,5.20
2022-08-27T19:09:43.010Z,5.38
2022-08-27T19:12:05.142Z,4.55
2022-08-27T19:14:26.631Z,5.57
2022-08-27T19:16:53.787Z,4.80
2022-08-27T19:19:17.577Z,4.55
2022-08-27T19:21:39.668Z,5.13
2022-08-27T19:24:01.391Z,5.93
2022-08-27T19:26:25.286Z,4.95
2022-08-27T19:28:47.020Z,4.75
2022-08-27T19:31:08.764Z,5.10
2022-08-27T19:33:30.362Z,4.60
2022-08-27T19:35:51.859Z,4.65
2022-08-27T19:38:14.546Z,5.15
2022-08-27T19:40:36.081Z,4.65
2022-08-27T19:42:57.600Z,4.90
2022-08-27T19:45:22.952Z,4.03
2022-08-27T19:47:44.934Z,4.15
2022-08-27T19:50:06.923Z,4.18
2022-08-27T19:52:28.397Z,4.40
2022-08-27T19:55:12.557Z,4.57
2022-08-27T19:57:31.658Z,4.40
2022-08-27T19:59:53.106Z,4.30
2022-08-27T20:02:14.571Z,4.65
2022-08-27T20:04:56.030Z,4.60
2022-08-27T20:07:21.923Z,4.10
2022-08-27T20:09:43.372Z,4.82
2022-08-27T20:12:05.356Z,4.90
2022-08-27T20:14:26.815Z,4.57
2022-08-27T20:16:48.508Z,4.85
2022-08-27T20:19:11.003Z,4.45
2022-08-27T20:21:32.469Z,4.40
2022-08-27T20:23:53.999Z,4.43
2022-08-27T20:26:15.771Z,4.57
2022-08-27T20:28:39.978Z,4.88
2022-08-27T20:31:02.358Z,4.60
2022-08-27T20:33:23.931Z,5.00
2022-08-27T20:35:45.496Z,4.80
2022-08-27T20:38:07.397Z,4.57
2022-08-27T20:40:31.369Z,4.45
2022-08-27T20:42:52.978Z,4.32
2022-08-27T20:45:15.267Z,4.00
2022-08-27T20:47:37.459Z,4.47
2022-08-27T20:49:59.889Z,4.57
2022-08-27T20:52:24.898Z,4.30
2022-08-27T20:54:46.698Z,4.10
2022-08-27T20:57:08.960Z,4.57
2022-08-27T20:59:49.672Z,4.10
2022-08-27T21:02:13.146Z,4.13
2022-08-27T21:04:39.178Z,4.57
2022-08-27T21:07:00.655Z,5.22
2022-08-27T21:09:22.087Z,4.30
2022-08-27T21:11:43.535Z,4.95
2022-08-27T21:14:05.027Z,4.40
2022-08-27T21:16:27.867Z,4.13
2022-08-27T21:18:49.426Z,4.28
2022-08-27T21:21:10.938Z,4.80
2022-08-27T21:23:34.605Z,4.95
2022-08-27T21:26:01.571Z,4.47
2022-08-27T21:28:23.086Z,4.75
2022-08-27T21:30:45.235Z,5.47
2022-08-27T21:33:06.685Z,4.65
2022-08-27T21:35:30.185Z,5.25
2022-08-27T21:37:51.656Z,5.15
2022-08-27T21:40:13.130Z,4.78
2022-08-27T21:42:35.105Z,4.45
2022-08-27T21:44:56.656Z,4.90
2022-08-27T21:47:18.193Z,5.15
2022-08-27T21:49:39.684Z,4.40
2022-08-27T21:52:06.092Z,4.63
2022-08-27T21:54:28.092Z,4.53
2022-08-27T21:56:49.756Z,4.60
2022-08-27T21:59:11.480Z,5.20
2022-08-27T22:01:32.998Z,4.70
2022-08-27T22:03:55.202Z,4.40
2022-08-27T22:06:17.809Z,4.65
2022-08-27T22:08:39.732Z,4.68
2022-08-27T22:11:01.657Z,4.72
2022-08-27T22:13:23.778Z,4.63
2022-08-27T22:15:45.514Z,4.65
2022-08-27T22:18:08.133Z,4.80
2022-08-27T22:20:29.925Z,4.32
2022-08-27T22:22:52.302Z,4.95
2022-08-27T22:25:14.750Z,5.47
2022-08-27T22:27:36.467Z,5.13
2022-08-27T22:29:58.030Z,5.25
2022-08-27T22:32:19.494Z,5.22
2022-08-27T22:34:40.927Z,4.70
2022-08-27T22:37:03.393Z,5.10
2022-08-27T22:39:25.013Z,4.80
2022-08-27T22:41:49.149Z,4.63
2022-08-27T22:44:11.216Z,4.78
2022-08-27T22:46:32.828Z,4.38
2022-08-27T22:48:54.372Z,4.97
2022-08-27T22:51:15.851Z,4.75
2022-08-27T22:53:37.349Z,4.60
2022-08-27T22:56:01.282Z,4.32
2022-08-27T22:58:24.375Z,4.78
2022-08-27T23:00:50.845Z,4.40
2022-08-27T23:03:14.822Z,4.20
2022-08-27T23:05:41.748Z,4.82
2022-08-27T23:08:08.956Z,4.60
2022-08-27T23:10:30.709Z,4.45
2022-08-27T23:12:53.685Z,4.40
2022-08-27T23:15:17.968Z,4.88
2022-08-27T23:17:39.409Z,4.80
2022-08-27T23:20:00.870Z,4.75
2022-08-27T23:22:22.840Z,4.57
2022-08-27T23:25:02.982Z,4.43
2022-08-27T23:27:30.298Z,4.18
2022-08-27T23:29:52.023Z,4.32
2022-08-27T23:32:14.207Z,4.60
2022-08-27T23:34:35.665Z,5.03
2022-08-27T23:36:57.181Z,4.75
2022-08-27T23:39:18.714Z,4.80
2022-08-27T23:41:41.227Z,4.63
2022-08-27T23:44:02.908Z,4.65
2022-08-27T23:46:24.790Z,4.43
2022-08-27T23:48:46.287Z,3.85
2022-08-27T23:51:09.107Z,4.90
2022-08-27T23:53:30.671Z,3.40
2022-08-27T23:55:52.125Z,23.90
2022-08-27T23:58:13.728Z,3.80
